Jewell, Ohio
Current Conditions -  °F | °C
As of 5:53 PM on Monday 22 Dec 2014 (Local Time) from KDFI Reporting Station
Broken Clouds Broken Clouds  
Wind Chill: 32°   Ceiling: 8000
Heat Index: 38°   Visibility: 7mi
Dew Point: 31°   Wind: 8mph
Humidity: 76%   Direction: 80°E
Pressure: 29.87"   Gusts: NA
Location:  41.33°N, 84.29°W
Report Text: KDFI 222253Z AUTO 08007KT 7SM BKN080 03/M01 A2987 RMK AO2 SLP121 T00331006 TSNO
Loading
Personal Weather Stations






























Interactive Weather Map New forecast layout! Learn more

10-Day Weather Forecast

Advertisements
Track Severe Weather on mobile